Time;durP1;ratioP1;P1;durP2;ratioP2;P2;SDS_P1;SDS_P2;PMS_P1;PMS_P2;Temp;Humidity;BMP_temperature;BMP_pressure;BME280_temperature;BME280_humidity;BME280_pressure;Samples;Min_cycle;Max_cycle;Signal;HPM_P1;HPM_P2
2021/05/17 00:01:50;;;;;;;34.67;5.70;;;8.00;99.90;;;;;;5013036;28;20109;-69
2021/05/17 00:04:16;;;;;;;38.28;5.57;;;8.00;99.90;;;;;;5013041;28;20018;-69
2021/05/17 00:06:42;;;;;;;30.38;6.47;;;8.00;99.90;;;;;;5012798;28;20053;-69
2021/05/17 00:09:09;;;;;;;21.75;6.05;;;7.90;99.90;;;;;;5012848;28;20469;-69
2021/05/17 00:11:34;;;;;;;21.92;5.72;;;7.90;99.90;;;;;;5012856;28;20045;-68
2021/05/17 00:14:00;;;;;;;29.98;6.63;;;7.90;99.90;;;;;;5012376;28;20018;-70
2021/05/17 00:16:26;;;;;;;20.55;6.85;;;7.90;99.90;;;;;;5012967;28;20088;-68
2021/05/17 00:18:52;;;;;;;24.20;7.40;;;7.90;99.90;;;;;;5012821;28;20018;-68
2021/05/17 00:21:18;;;;;;;20.20;6.70;;;7.90;99.90;;;;;;5012820;28;20109;-68
2021/05/17 00:23:44;;;;;;;19.00;5.25;;;8.00;99.90;;;;;;5012791;28;20410;-68
2021/05/17 00:26:10;;;;;;;15.05;6.28;;;7.90;99.90;;;;;;5012943;28;20084;-68
2021/05/17 00:28:36;;;;;;;18.45;5.88;;;7.90;99.90;;;;;;5012401;28;20105;-68
2021/05/17 00:31:02;;;;;;;18.85;6.28;;;7.80;99.90;;;;;;5012500;28;20125;-68
2021/05/17 00:33:28;;;;;;;13.43;7.53;;;7.80;99.90;;;;;;5012667;28;20026;-68
2021/05/17 00:35:54;;;;;;;33.22;7.63;;;7.80;99.90;;;;;;5012472;28;20497;-68
2021/05/17 00:38:21;;;;;;;17.52;7.15;;;7.90;99.90;;;;;;5012335;28;20093;-68
2021/05/17 00:40:47;;;;;;;25.50;7.10;;;7.90;99.90;;;;;;5012566;28;20026;-68
2021/05/17 00:43:14;;;;;;;30.17;7.00;;;7.90;99.90;;;;;;5012405;28;20022;-68
2021/05/17 00:45:41;;;;;;;21.00;6.53;;;7.80;99.90;;;;;;5012407;28;20052;-68
2021/05/17 00:48:07;;;;;;;31.80;7.38;;;7.80;99.90;;;;;;5012697;28;20121;-68
2021/05/17 00:50:33;;;;;;;18.70;6.95;;;7.80;99.90;;;;;;4994799;28;20038;-68
2021/05/17 00:52:59;;;;;;;28.98;6.82;;;7.80;99.90;;;;;;5012555;28;20516;-69
2021/05/17 00:55:28;;;;;;;27.42;6.95;;;7.90;99.90;;;;;;5012616;28;20037;-69
2021/05/17 00:57:54;;;;;;;25.65;6.95;;;7.90;99.90;;;;;;5012226;28;20429;-69
2021/05/17 01:00:23;;;;;;;16.67;6.82;;;7.90;99.90;;;;;;5012269;28;20442;-69
2021/05/17 01:02:50;;;;;;;36.65;7.30;;;7.90;99.90;;;;;;5012039;28;20022;-69
2021/05/17 01:05:15;;;;;;;40.25;6.75;;;7.80;99.90;;;;;;5012143;28;20069;-69
2021/05/17 01:07:50;;;;;;;37.33;6.57;;;7.80;99.90;;;;;;5011920;28;20057;-69
2021/05/17 01:10:18;;;;;;;52.90;6.43;;;7.80;99.90;;;;;;5012187;28;20031;-68
2021/05/17 01:12:46;;;;;;;30.65;6.22;;;7.80;99.90;;;;;;5012012;28;20045;-68
2021/05/17 01:15:14;;;;;;;22.95;6.68;;;7.70;99.90;;;;;;5012104;28;20030;-68
2021/05/17 01:17:41;;;;;;;24.02;6.50;;;7.70;99.90;;;;;;5011923;28;20022;-68
2021/05/17 01:20:11;;;;;;;44.10;6.55;;;7.60;99.90;;;;;;5012009;28;20536;-68
2021/05/17 01:22:59;;;;;;;38.15;6.38;;;7.60;99.90;;;;;;5012143;28;20393;-68
2021/05/17 01:25:27;;;;;;;42.97;6.43;;;7.60;99.90;;;;;;5014464;28;20030;-68
2021/05/17 01:27:53;;;;;;;38.88;6.50;;;7.60;99.90;;;;;;5015851;28;20058;-68
2021/05/17 01:30:22;;;;;;;40.42;6.57;;;7.70;99.90;;;;;;5015853;28;20038;-68
2021/05/17 01:32:52;;;;;;;38.05;6.90;;;7.70;99.90;;;;;;5015633;28;20033;-68
2021/05/17 01:35:18;;;;;;;24.52;6.93;;;7.70;99.90;;;;;;5015944;28;20026;-68
2021/05/17 01:37:45;;;;;;;41.15;5.90;;;7.70;99.90;;;;;;5015353;28;20053;-67
2021/05/17 01:40:11;;;;;;;28.77;7.03;;;7.70;99.90;;;;;;5016008;28;20022;-69
2021/05/17 01:42:39;;;;;;;31.70;6.57;;;7.70;99.90;;;;;;5015561;28;20469;-69
2021/05/17 01:45:06;;;;;;;24.73;6.68;;;7.80;99.90;;;;;;5015762;28;20109;-69
2021/05/17 01:47:38;;;;;;;43.33;6.63;;;7.80;99.90;;;;;;5015666;28;20042;-69
2021/05/17 01:50:05;;;;;;;45.53;7.20;;;7.80;99.90;;;;;;5015575;28;20470;-69
2021/05/17 01:52:35;;;;;;;18.48;6.20;;;7.80;99.90;;;;;;5015427;28;20038;-69
2021/05/17 01:55:06;;;;;;;46.13;7.20;;;7.80;99.90;;;;;;5015818;28;20033;-69
2021/05/17 01:57:32;;;;;;;38.45;6.70;;;7.80;99.90;;;;;;5015326;28;20026;-69
2021/05/17 01:59:59;;;;;;;42.25;6.50;;;7.70;99.90;;;;;;4997864;28;20080;-69
2021/05/17 02:02:26;;;;;;;35.55;6.75;;;7.70;99.90;;;;;;5015394;28;20065;-68
2021/05/17 02:04:53;;;;;;;45.70;6.78;;;7.70;99.90;;;;;;5015241;28;20044;-68
2021/05/17 02:07:19;;;;;;;42.53;7.45;;;7.70;99.90;;;;;;5015536;28;20022;-68
2021/05/17 02:09:51;;;;;;;44.42;7.07;;;7.80;99.90;;;;;;5015065;28;20716;-68
2021/05/17 02:12:22;;;;;;;39.00;7.47;;;7.80;99.90;;;;;;5015227;28;20033;-68
2021/05/17 02:14:53;;;;;;;36.15;7.50;;;7.90;99.90;;;;;;4997394;28;20030;-68
2021/05/17 02:17:24;;;;;;;47.28;7.75;;;7.90;99.90;;;;;;5014911;28;20140;-68
2021/05/17 02:19:51;;;;;;;43.22;7.32;;;7.90;99.90;;;;;;5014931;28;20079;-68
2021/05/17 02:22:18;;;;;;;31.17;7.43;;;7.90;99.90;;;;;;5015041;28;20029;-68
2021/05/17 02:24:46;;;;;;;26.70;7.68;;;7.90;99.90;;;;;;5014610;28;20022;-68
2021/05/17 02:27:16;;;;;;;23.90;7.72;;;7.90;99.90;;;;;;5014931;28;20080;-68
2021/05/17 02:29:43;;;;;;;17.23;7.10;;;7.90;99.90;;;;;;5014800;28;20099;-67
2021/05/17 02:32:09;;;;;;;32.78;6.88;;;8.00;99.90;;;;;;5014979;28;20030;-68
2021/05/17 02:34:35;;;;;;;28.55;7.03;;;8.00;99.90;;;;;;5014588;28;20064;-68
2021/05/17 02:37:02;;;;;;;41.22;7.57;;;7.90;99.90;;;;;;5013475;28;20128;-68
2021/05/17 02:39:28;;;;;;;29.67;6.72;;;8.00;99.90;;;;;;5014654;28;20036;-68
2021/05/17 02:41:56;;;;;;;27.95;6.70;;;8.00;99.90;;;;;;5014488;28;20018;-68
2021/05/17 02:44:23;;;;;;;20.17;6.20;;;8.00;99.90;;;;;;5014493;28;20033;-68
2021/05/17 02:46:56;;;;;;;18.88;7.32;;;8.00;99.90;;;;;;5014596;28;20025;-68
2021/05/17 02:49:22;;;;;;;24.38;7.30;;;8.00;99.90;;;;;;5014353;28;20030;-68
2021/05/17 02:51:51;;;;;;;16.48;6.75;;;8.00;99.90;;;;;;5014532;28;20029;-68
2021/05/17 02:54:27;;;;;;;15.20;6.72;;;8.00;99.90;;;;;;5014271;28;20030;-68
2021/05/17 02:57:08;;;;;;;24.48;6.85;;;8.00;99.90;;;;;;5014224;28;20026;-69
2021/05/17 02:59:36;;;;;;;;;;;8.00;99.90;;;;;;5014544;28;20021;-69
2021/05/17 03:02:07;;;;;;;27.85;7.03;;;8.10;99.90;;;;;;5014309;28;19909;-69
2021/05/17 03:04:37;;;;;;;25.70;6.60;;;8.10;99.90;;;;;;5014201;28;20033;-69
2021/05/17 03:07:12;;;;;;;23.00;7.72;;;8.10;99.90;;;;;;5014210;28;20037;-68
2021/05/17 03:09:39;;;;;;;31.30;7.55;;;8.10;99.90;;;;;;5013932;28;20030;-69
2021/05/17 03:12:07;;;;;;;38.17;8.30;;;8.10;99.90;;;;;;5014395;28;20026;-69
2021/05/17 03:14:35;;;;;;;19.35;7.25;;;8.10;99.90;;;;;;5013985;28;20100;-69
2021/05/17 03:17:01;;;;;;;30.88;7.75;;;8.10;99.90;;;;;;5014279;28;20060;-69
2021/05/17 03:19:28;;;;;;;22.38;7.63;;;8.10;99.90;;;;;;5014253;28;20022;-68
2021/05/17 03:21:58;;;;;;;20.10;7.35;;;8.20;99.90;;;;;;5013813;28;20686;-69
2021/05/17 03:24:26;;;;;;;25.80;7.70;;;8.20;99.90;;;;;;5013905;28;20113;-67
2021/05/17 03:26:55;;;;;;;27.60;8.07;;;8.20;99.90;;;;;;5013882;28;20037;-67
2021/05/17 03:29:20;;;;;;;32.70;7.85;;;8.20;99.90;;;;;;5013602;28;20481;-67
2021/05/17 03:31:46;;;;;;;32.90;7.80;;;8.30;99.90;;;;;;5013577;28;20037;-67
2021/05/17 03:34:12;;;;;;;23.15;8.13;;;8.30;99.90;;;;;;5013639;28;20093;-67
2021/05/17 03:36:40;;;;;;;28.95;7.70;;;8.30;99.90;;;;;;5013372;28;20054;-67
2021/05/17 03:39:06;;;;;;;19.02;8.38;;;8.30;99.90;;;;;;5013509;28;20385;-67
2021/05/17 03:41:32;;;;;;;25.42;8.23;;;8.20;99.90;;;;;;5013557;28;20034;-67
2021/05/17 03:43:58;;;;;;;29.30;7.68;;;8.30;99.90;;;;;;5013862;28;20029;-67
2021/05/17 03:46:23;;;;;;;19.23;7.93;;;8.30;99.90;;;;;;5013633;28;20026;-67
2021/05/17 03:48:49;;;;;;;23.23;7.93;;;8.30;99.90;;;;;;5013082;28;20512;-68
2021/05/17 03:51:15;;;;;;;21.48;8.10;;;8.30;99.90;;;;;;5013191;28;20072;-68
2021/05/17 03:53:41;;;;;;;21.73;8.13;;;8.30;99.90;;;;;;5013162;28;20390;-67
2021/05/17 03:56:07;;;;;;;19.25;8.32;;;8.40;99.90;;;;;;5013437;28;20021;-68
2021/05/17 03:58:33;;;;;;;27.30;8.52;;;8.40;99.90;;;;;;5013152;28;20026;-68
2021/05/17 04:01:00;;;;;;;17.65;8.30;;;8.40;99.90;;;;;;5013258;28;20072;-68
2021/05/17 04:03:26;;;;;;;19.80;8.35;;;8.50;99.90;;;;;;5013079;28;20037;-67
2021/05/17 04:13:30;;;;;;;12.55;6.97;;;8.60;99.90;;;;;;5013133;28;20100;-67
2021/05/17 04:15:56;;;;;;;14.85;6.88;;;8.60;99.90;;;;;;5013013;28;20061;-67
2021/05/17 04:18:22;;;;;;;19.02;7.13;;;8.60;99.90;;;;;;5012788;28;20124;-67
2021/05/17 04:20:50;;;;;;;17.20;6.68;;;8.60;99.90;;;;;;5013065;28;20040;-67
2021/05/17 04:23:22;;;;;;;17.10;7.13;;;8.60;99.90;;;;;;5013129;28;20026;-67
2021/05/17 04:25:48;;;;;;;12.63;6.68;;;8.60;99.90;;;;;;5012844;28;20029;-68
2021/05/17 04:28:15;;;;;;;14.70;7.63;;;8.60;99.90;;;;;;5012778;28;20109;-68
2021/05/17 04:30:40;;;;;;;11.35;6.65;;;8.60;99.90;;;;;;5012473;28;20036;-75
2021/05/17 04:33:06;;;;;;;7.90;5.72;;;8.60;99.90;;;;;;5012796;28;20030;-73
2021/05/17 04:35:32;;;;;;;9.23;5.80;;;8.60;99.90;;;;;;5012515;28;20026;-73
2021/05/17 04:37:58;;;;;;;11.18;5.07;;;8.70;99.90;;;;;;5012081;28;20041;-76
2021/05/17 04:40:24;;;;;;;7.43;5.70;;;8.70;99.90;;;;;;5012523;28;20072;-73
2021/05/17 04:42:50;;;;;;;9.13;5.00;;;9.40;99.90;;;;;;5012331;28;20033;-71
2021/05/17 04:45:16;;;;;;;10.15;5.82;;;9.40;99.90;;;;;;5012466;28;20088;-71
2021/05/17 04:47:42;;;;;;;13.65;5.68;;;9.20;99.90;;;;;;5012138;28;20101;-72
2021/05/17 04:50:08;;;;;;;7.50;4.80;;;9.00;99.90;;;;;;5012257;28;20112;-71
2021/05/17 04:52:34;;;;;;;11.25;5.55;;;9.00;99.90;;;;;;5012281;28;20557;-69
2021/05/17 04:55:00;;;;;;;9.13;5.07;;;8.90;99.90;;;;;;5012202;28;20549;-68
2021/05/17 04:57:26;;;;;;;8.20;5.93;;;8.80;99.90;;;;;;5012200;28;20029;-69
2021/05/17 04:59:52;;;;;;;7.57;5.63;;;8.70;99.90;;;;;;5011564;28;20033;-68
2021/05/17 05:02:18;;;;;;;6.30;5.00;;;8.70;99.90;;;;;;5012206;28;20026;-69
2021/05/17 05:04:43;;;;;;;8.02;5.22;;;8.70;99.90;;;;;;5011995;28;20389;-67
2021/05/17 05:07:09;;;;;;;9.73;5.30;;;8.70;99.90;;;;;;5012283;28;20072;-67
2021/05/17 05:09:35;;;;;;;9.60;5.47;;;8.70;99.90;;;;;;4994561;28;20482;-67
2021/05/17 05:12:01;;;;;;;6.72;5.13;;;8.60;99.90;;;;;;5012330;28;20038;-69
2021/05/17 05:14:27;;;;;;;9.25;5.82;;;8.50;99.90;;;;;;5012097;28;20487;-70
2021/05/17 05:16:52;;;;;;;11.43;6.25;;;8.50;99.90;;;;;;5012041;28;20104;-69
2021/05/17 05:19:18;;;;;;;12.25;6.50;;;8.50;99.90;;;;;;5012202;28;20025;-69
2021/05/17 05:21:44;;;;;;;10.60;6.53;;;8.50;99.90;;;;;;5011953;28;20022;-69
2021/05/17 05:24:10;;;;;;;10.32;6.45;;;8.50;99.90;;;;;;5012075;28;20029;-70
2021/05/17 05:26:51;;;;;;;11.93;6.85;;;8.50;99.90;;;;;;5012343;28;20022;-69
2021/05/17 05:34:26;;;;;;;9.75;6.30;;;8.60;99.90;;;;;;4992457;28;20385;-69
2021/05/17 05:36:52;;;;;;;9.38;5.65;;;8.60;99.90;;;;;;4991962;28;20073;-69
2021/05/17 05:39:18;;;;;;;15.00;6.68;;;8.70;99.90;;;;;;4992407;28;20026;-69
2021/05/17 05:41:44;;;;;;;14.85;6.43;;;9.10;99.90;;;;;;4992478;28;20027;-69
2021/05/17 05:44:10;;;;;;;10.68;6.47;;;9.00;99.90;;;;;;4992287;28;20141;-69
2021/05/17 05:46:36;;;;;;;17.08;7.80;;;8.90;99.90;;;;;;4992463;28;20117;-69
2021/05/17 05:49:01;;;;;;;8.05;6.00;;;8.90;99.90;;;;;;4991903;28;20517;-69
2021/05/17 05:51:29;;;;;;;7.40;5.72;;;8.90;99.90;;;;;;4992124;28;20035;-69
2021/05/17 05:53:59;;;;;;;13.15;6.78;;;8.90;99.90;;;;;;4991974;28;20018;-69
2021/05/17 05:56:25;;;;;;;9.38;6.63;;;8.80;99.90;;;;;;4992084;28;20026;-70
2021/05/17 05:58:51;;;;;;;9.05;6.30;;;8.90;99.90;;;;;;4992197;28;20445;-69
2021/05/17 06:01:17;;;;;;;21.48;6.30;;;8.90;99.90;;;;;;4992049;28;20114;-70
2021/05/17 06:03:43;;;;;;;12.50;6.22;;;8.80;99.90;;;;;;4991826;28;20466;-72
2021/05/17 06:06:09;;;;;;;5.63;4.97;;;8.90;99.90;;;;;;4992160;28;20030;-73
2021/05/17 06:08:40;;;;;;;10.27;5.72;;;9.00;99.90;;;;;;4992116;28;20081;-71
2021/05/17 06:11:07;;;;;;;7.30;4.95;;;9.00;99.90;;;;;;4993644;28;20093;-74
2021/05/17 06:13:34;;;;;;;5.95;4.65;;;9.00;99.90;;;;;;5003365;28;20030;-73
2021/05/17 06:16:00;;;;;;;4.15;3.75;;;8.90;99.90;;;;;;4996270;28;20041;-73
2021/05/17 06:18:26;;;;;;;7.45;4.15;;;9.00;99.90;;;;;;4996001;28;20022;-73
2021/05/17 06:20:54;;;;;;;6.40;4.43;;;9.10;99.90;;;;;;4996132;28;20113;-72
2021/05/17 06:23:21;;;;;;;5.95;3.63;;;9.10;99.90;;;;;;4996276;28;20036;-72
2021/05/17 06:25:47;;;;;;;7.70;3.47;;;9.50;99.90;;;;;;4995267;28;20478;-72
2021/05/17 06:28:13;;;;;;;3.85;3.35;;;9.50;99.90;;;;;;4995303;28;20062;-72
2021/05/17 06:30:43;;;;;;;4.90;3.70;;;9.40;99.90;;;;;;4995186;28;20041;-72
2021/05/17 06:33:09;;;;;;;4.78;3.65;;;9.40;99.90;;;;;;4995318;28;20486;-72
2021/05/17 06:35:44;;;;;;;7.05;3.63;;;9.40;99.90;;;;;;4995559;28;20038;-72
2021/05/17 06:38:10;;;;;;;5.00;2.60;;;9.40;99.90;;;;;;4995386;28;20058;-72
2021/05/17 06:40:36;;;;;;;5.25;3.30;;;9.40;99.90;;;;;;4995603;28;20027;-73
2021/05/17 06:43:02;;;;;;;4.18;2.92;;;9.40;99.90;;;;;;4995043;28;20054;-72
2021/05/17 06:45:28;;;;;;;9.77;2.42;;;9.50;99.90;;;;;;4995573;28;20084;-70
2021/05/17 06:47:54;;;;;;;2.92;2.50;;;9.40;99.90;;;;;;4995114;28;20041;-72
2021/05/17 06:50:21;;;;;;;3.25;2.60;;;9.40;99.90;;;;;;4995138;28;20113;-72
2021/05/17 06:52:47;;;;;;;2.42;2.22;;;9.50;99.90;;;;;;4995103;28;20026;-72
2021/05/17 06:55:19;;;;;;;4.55;2.10;;;10.10;99.90;;;;;;4995211;28;20033;-72
2021/05/17 07:00:29;;;;;;;2.38;1.95;;;10.00;99.90;;;;;;4994778;28;20061;-73
2021/05/17 07:03:07;;;;;;;6.93;2.25;;;9.90;99.90;;;;;;4994643;28;20393;-73
2021/05/17 07:05:35;;;;;;;2.33;2.13;;;9.70;99.90;;;;;;4994873;28;20048;-71
2021/05/17 07:13:12;;;;;;;2.90;2.20;;;9.70;99.90;;;;;;4994480;28;20113;-73
2021/05/17 07:15:38;;;;;;;3.10;2.50;;;9.60;99.90;;;;;;4994673;28;20105;-73
2021/05/17 07:18:04;;;;;;;2.40;1.95;;;9.70;99.90;;;;;;4994229;28;20618;-72
2021/05/17 07:25:59;;;;;;;1.50;1.20;;;9.80;99.90;;;;;;5002186;28;20039;-71
2021/05/17 07:28:25;;;;;;;1.65;1.10;;;9.80;99.90;;;;;;5026409;28;20287;-71
2021/05/17 07:30:51;;;;;;;3.33;1.42;;;9.90;99.90;;;;;;5018580;28;20056;-71
2021/05/17 07:33:17;;;;;;;1.50;1.40;;;9.90;99.90;;;;;;4998815;28;20029;-73
2021/05/17 07:35:43;;;;;;;2.58;1.30;;;10.00;99.90;;;;;;5006354;28;20377;-73
2021/05/17 07:38:09;;;;;;;1.90;1.70;;;9.90;99.90;;;;;;5010016;28;20042;-75
2021/05/17 07:40:38;;;;;;;1.50;1.40;;;9.90;99.90;;;;;;5012351;28;20029;-75
2021/05/17 07:43:04;;;;;;;2.95;1.45;;;9.80;99.90;;;;;;5012444;28;20544;-75
2021/05/17 07:45:30;;;;;;;2.72;1.83;;;9.90;99.90;;;;;;5012646;28;20034;-75
2021/05/17 07:47:56;;;;;;;1.75;1.65;;;10.00;99.90;;;;;;5004103;28;20076;-68
2021/05/17 07:50:22;;;;;;;6.95;1.90;;;10.30;99.90;;;;;;4992747;28;20052;-71
2021/05/17 07:52:48;;;;;;;1.65;1.55;;;10.70;99.90;;;;;;4992746;28;20096;-71
2021/05/17 07:55:19;;;;;;;1.58;1.42;;;10.90;99.90;;;;;;4992987;28;20529;-71
2021/05/17 07:57:45;;;;;;;1.98;1.65;;;10.80;99.90;;;;;;4993058;28;20027;-72
2021/05/17 08:00:11;;;;;;;2.03;1.50;;;10.60;99.90;;;;;;4992851;28;20370;-70
2021/05/17 08:02:37;;;;;;;1.50;1.40;;;10.50;99.90;;;;;;4992631;28;20478;-71
2021/05/17 08:05:03;;;;;;;1.90;1.60;;;10.50;99.90;;;;;;4992484;28;20097;-71
2021/05/17 08:07:29;;;;;;;7.20;1.20;;;10.40;99.90;;;;;;4992570;28;20050;-71
2021/05/17 08:09:55;;;;;;;1.60;1.20;;;10.30;99.90;;;;;;4992302;28;20529;-72
2021/05/17 08:12:21;;;;;;;1.35;1.08;;;10.30;99.90;;;;;;4992484;28;20038;-71
2021/05/17 08:14:47;;;;;;;2.78;1.20;;;10.20;99.90;;;;;;4992465;28;20023;-70
2021/05/17 08:17:13;;;;;;;1.00;1.00;;;10.20;99.90;;;;;;4992878;28;20027;-71
2021/05/17 08:19:39;;;;;;;1.05;0.95;;;10.20;99.90;;;;;;4992767;28;20034;-71
2021/05/17 08:22:05;;;;;;;3.25;1.50;;;10.10;99.90;;;;;;4992431;28;20536;-71
2021/05/17 08:24:31;;;;;;;3.35;1.45;;;10.10;99.90;;;;;;4992590;28;20022;-68
2021/05/17 08:26:58;;;;;;;2.58;1.52;;;10.10;99.90;;;;;;4992549;28;20026;-68
2021/05/17 08:29:24;;;;;;;1.67;1.58;;;10.10;99.90;;;;;;4992372;28;20479;-71
2021/05/17 08:31:51;;;;;;;3.05;1.90;;;10.10;99.90;;;;;;4992264;28;20038;-72
2021/05/17 08:34:17;;;;;;;2.05;1.35;;;10.10;99.90;;;;;;4991485;28;20019;-71
2021/05/17 08:36:44;;;;;;;2.42;1.70;;;10.20;99.90;;;;;;4968749;28;679798;-69
2021/05/17 08:39:10;;;;;;;2.33;1.58;;;10.30;99.90;;;;;;4992771;28;20088;-69
2021/05/17 08:41:37;;;;;;;4.35;1.42;;;10.20;99.90;;;;;;4992995;28;20081;-69
2021/05/17 08:44:04;;;;;;;1.48;1.38;;;10.10;99.90;;;;;;4992893;28;20031;-71
2021/05/17 08:46:30;;;;;;;1.55;1.42;;;10.00;99.90;;;;;;4992882;28;20541;-72
2021/05/17 08:48:56;;;;;;;5.00;1.63;;;10.20;99.90;;;;;;4992698;28;20130;-70
2021/05/17 08:51:31;;;;;;;1.15;1.05;;;10.40;99.90;;;;;;4992456;28;20049;-69
2021/05/17 08:54:01;;;;;;;1.10;1.00;;;10.50;99.90;;;;;;4992121;28;20044;-69
2021/05/17 08:56:26;;;;;;;1.35;1.13;;;10.40;99.90;;;;;;4993189;28;20030;-69
2021/05/17 08:58:57;;;;;;;2.42;1.45;;;10.30;99.90;;;;;;4992886;28;20057;-69
2021/05/17 09:01:23;;;;;;;1.00;0.95;;;10.40;99.90;;;;;;4992788;28;20030;-69
2021/05/17 09:04:11;;;;;;;1.10;1.00;;;10.40;99.90;;;;;;4992742;28;20034;-69
2021/05/17 09:06:48;;;;;;;1.20;1.10;;;10.30;99.90;;;;;;4992607;28;20554;-69
2021/05/17 09:09:31;;;;;;;1.20;1.10;;;10.30;99.90;;;;;;4992607;28;20046;-69
2021/05/17 09:12:10;;;;;;;1.13;1.02;;;10.30;99.90;;;;;;4992433;28;20575;-69
2021/05/17 09:14:36;;;;;;;1.50;1.38;;;10.40;99.90;;;;;;4992341;28;20023;-69
2021/05/17 09:17:05;;;;;;;1.15;1.05;;;10.40;99.90;;;;;;4992357;28;20031;-69
2021/05/17 09:19:32;;;;;;;1.33;1.17;;;10.30;99.90;;;;;;4992221;28;20497;-70
2021/05/17 09:22:15;;;;;;;4.03;1.40;;;10.20;99.90;;;;;;4992240;28;20038;-70
2021/05/17 09:24:54;;;;;;;1.40;1.30;;;10.10;99.90;;;;;;4992273;28;20022;-70
2021/05/17 09:27:20;;;;;;;1.48;1.25;;;10.10;99.90;;;;;;4992627;28;20081;-70
2021/05/17 09:29:54;;;;;;;4.75;1.42;;;10.10;99.90;;;;;;4992725;28;20034;-70
2021/05/17 09:32:22;;;;;;;1.40;1.30;;;10.20;99.90;;;;;;4992279;28;20026;-70
2021/05/17 09:34:58;;;;;;;1.20;1.10;;;10.30;99.90;;;;;;4992207;28;20022;-70
2021/05/17 09:37:24;;;;;;;1.35;1.25;;;10.20;99.90;;;;;;4992053;28;20050;-70
2021/05/17 09:39:51;;;;;;;1.27;1.17;;;10.30;99.90;;;;;;4992065;28;20034;-70
2021/05/17 09:42:23;;;;;;;1.50;1.40;;;10.40;99.90;;;;;;4974825;28;20026;-70
2021/05/17 09:44:49;;;;;;;1.40;1.30;;;10.50;99.90;;;;;;4992264;28;20022;-70
2021/05/17 09:47:23;;;;;;;1.48;1.38;;;10.50;99.90;;;;;;4995717;28;20061;-70
2021/05/17 09:49:51;;;;;;;1.40;1.30;;;10.40;99.90;;;;;;4995996;28;20034;-70
2021/05/17 09:52:25;;;;;;;1.40;1.30;;;10.40;99.90;;;;;;4995994;28;20026;-70
2021/05/17 09:54:57;;;;;;;3.95;1.52;;;10.40;99.90;;;;;;4995986;28;20058;-71
2021/05/17 09:57:29;;;;;;;1.50;1.40;;;10.50;99.90;;;;;;4995802;28;20026;-70
2021/05/17 09:59:56;;;;;;;3.10;1.40;;;10.50;99.90;;;;;;4995759;28;20022;-70
2021/05/17 10:02:34;;;;;;;1.65;1.55;;;10.40;99.90;;;;;;4996209;28;20026;-70
2021/05/17 10:05:15;;;;;;;1.95;1.75;;;10.40;99.90;;;;;;4995461;28;20106;-70
2021/05/17 10:07:43;;;;;;;1.48;1.38;;;10.30;99.90;;;;;;4995747;28;20018;-70
2021/05/17 10:10:10;;;;;;;1.83;1.73;;;10.40;99.90;;;;;;4995418;28;20034;-71
2021/05/17 10:12:38;;;;;;;1.73;1.63;;;10.40;99.90;;;;;;4995864;28;20350;-70
2021/05/17 10:15:07;;;;;;;2.00;1.77;;;10.40;99.90;;;;;;4995634;28;20374;-71
2021/05/17 10:17:35;;;;;;;3.15;1.70;;;10.40;99.90;;;;;;4996054;28;20030;-70
2021/05/17 10:20:05;;;;;;;1.83;1.73;;;10.40;99.90;;;;;;4995546;28;20057;-70
2021/05/17 10:22:31;;;;;;;3.45;1.77;;;10.30;99.90;;;;;;4995384;28;20478;-70
2021/05/17 10:24:58;;;;;;;5.85;1.90;;;10.20;99.90;;;;;;4995031;28;20030;-70
2021/05/17 10:27:27;;;;;;;2.10;1.50;;;10.20;99.90;;;;;;4995273;28;20019;-70
2021/05/17 10:30:00;;;;;;;2.17;1.83;;;10.20;99.90;;;;;;4995147;28;20042;-70
2021/05/17 10:32:46;;;;;;;1.70;1.60;;;10.10;99.90;;;;;;4995627;28;20034;-70
2021/05/17 10:35:19;;;;;;;2.10;1.88;;;10.10;99.90;;;;;;4994969;28;20026;-70
2021/05/17 10:37:47;;;;;;;2.53;2.00;;;10.00;99.90;;;;;;4994967;28;20051;-71
2021/05/17 10:40:43;;;;;;;2.15;1.95;;;10.00;99.90;;;;;;4994861;28;20030;-71
2021/05/17 10:43:30;;;;;;;2.30;2.10;;;10.00;99.90;;;;;;4995153;28;20027;-71
2021/05/17 10:49:32;;;;;;;1.95;1.83;;;10.00;99.90;;;;;;4995108;28;20080;-71
2021/05/17 10:52:04;;;;;;;2.63;2.42;;;10.10;99.90;;;;;;4994715;28;20034;-70
2021/05/17 10:54:36;;;;;;;3.80;2.40;;;10.10;99.90;;;;;;4994708;28;20386;-71
2021/05/17 10:57:15;;;;;;;2.80;2.50;;;9.90;99.90;;;;;;4993960;28;20070;-70
2021/05/17 11:02:34;;;;;;;4.10;2.55;;;9.70;99.90;;;;;;4995040;28;20045;-71
2021/05/17 11:05:10;;;;;;;2.80;2.50;;;9.70;99.90;;;;;;4994671;28;20454;-70
2021/05/17 11:07:58;;;;;;;2.50;2.30;;;9.70;99.90;;;;;;4994798;28;20485;-71
2021/05/17 11:10:35;;;;;;;3.60;2.40;;;9.80;99.90;;;;;;4994925;28;20038;-70
2021/05/17 11:13:29;;;;;;;11.48;4.03;;;9.70;99.90;;;;;;4994375;28;20390;-70
2021/05/17 11:16:08;;;;;;;5.00;2.83;;;9.60;99.90;;;;;;4992309;28;20035;-70
2021/05/17 11:18:38;;;;;;;3.08;2.88;;;9.50;99.90;;;;;;4994626;28;20030;-70
2021/05/17 11:21:10;;;;;;;3.45;3.15;;;9.40;99.90;;;;;;4994042;28;20474;-71
2021/05/17 11:23:36;;;;;;;3.53;3.03;;;9.30;99.90;;;;;;4994520;28;20062;-71
2021/05/17 11:26:11;;;;;;;3.33;3.03;;;9.40;99.90;;;;;;4993867;28;20493;-71
2021/05/17 11:28:43;;;;;;;7.97;3.00;;;9.50;99.90;;;;;;4994072;28;20035;-71
2021/05/17 11:31:23;;;;;;;2.55;2.35;;;9.40;99.90;;;;;;4994033;28;20039;-71
2021/05/17 11:33:52;;;;;;;4.68;2.80;;;9.40;99.90;;;;;;4994112;28;20065;-71
2021/05/17 11:36:29;;;;;;;4.05;3.00;;;9.30;99.90;;;;;;4993665;28;20054;-70
2021/05/17 11:39:22;;;;;;;3.60;3.30;;;9.20;99.90;;;;;;4993729;28;20065;-71
2021/05/17 11:41:55;;;;;;;5.55;3.75;;;9.10;99.90;;;;;;4994049;28;20022;-71
2021/05/17 11:44:43;;;;;;;3.13;2.88;;;9.10;99.90;;;;;;4993559;28;20642;-71
2021/05/17 11:47:34;;;;;;;3.00;2.65;;;9.00;99.90;;;;;;4993804;28;20037;-71
2021/05/17 11:50:01;;;;;;;8.20;2.70;;;9.00;99.90;;;;;;4993631;28;20498;-71
2021/05/17 11:52:29;;;;;;;2.58;2.38;;;8.90;99.90;;;;;;4993817;28;20077;-71
2021/05/17 11:55:01;;;;;;;6.38;2.92;;;8.90;99.90;;;;;;4993766;28;20022;-71
2021/05/17 11:57:32;;;;;;;2.67;2.45;;;8.80;99.90;;;;;;4993589;28;20477;-71
2021/05/17 12:00:09;;;;;;;2.78;2.58;;;8.80;99.90;;;;;;4993550;28;20500;-71
2021/05/17 12:02:51;;;;;;;6.80;3.00;;;8.90;99.90;;;;;;4993526;28;20405;-71
2021/05/17 12:05:17;;;;;;;2.78;2.38;;;8.90;99.90;;;;;;4993341;28;20027;-71
2021/05/17 12:07:49;;;;;;;5.30;2.50;;;8.90;99.90;;;;;;4993461;28;20084;-71
2021/05/17 12:10:16;;;;;;;4.93;2.42;;;8.90;99.90;;;;;;4992150;28;20168;-71
2021/05/17 12:12:42;;;;;;;2.58;2.15;;;8.80;99.90;;;;;;4993344;28;20033;-71
2021/05/17 12:15:11;;;;;;;3.88;2.10;;;8.80;99.90;;;;;;4993547;28;20026;-71
2021/05/17 12:17:37;;;;;;;2.05;1.85;;;8.80;99.90;;;;;;4993277;28;20022;-71
2021/05/17 12:20:14;;;;;;;1.73;1.63;;;8.80;99.90;;;;;;4993056;28;20029;-71
2021/05/17 12:22:44;;;;;;;3.00;1.67;;;8.60;99.90;;;;;;4993244;28;20470;-71
2021/05/17 12:25:17;;;;;;;1.35;1.25;;;8.60;99.90;;;;;;4992946;28;20621;-71
2021/05/17 12:27:44;;;;;;;1.15;1.05;;;8.60;99.90;;;;;;4993225;28;20034;-71
2021/05/17 12:30:16;;;;;;;1.20;1.10;;;8.70;99.90;;;;;;4993051;28;20042;-71
2021/05/17 12:32:44;;;;;;;1.25;1.15;;;8.70;99.90;;;;;;4993154;28;20070;-70
2021/05/17 12:35:32;;;;;;;1.80;1.08;;;8.60;99.90;;;;;;4993000;28;20375;-71
2021/05/17 12:38:13;;;;;;;1.45;1.35;;;8.70;99.90;;;;;;4992823;28;20413;-70
2021/05/17 12:40:41;;;;;;;1.30;1.20;;;8.70;99.90;;;;;;4992854;28;20035;-70
2021/05/17 12:43:11;;;;;;;1.08;1.08;;;8.60;99.90;;;;;;4992961;28;20029;-71
2021/05/17 12:45:40;;;;;;;1.52;1.23;;;8.60;99.90;;;;;;4993213;28;20022;-70
2021/05/17 12:48:10;;;;;;;1.15;1.10;;;8.60;99.90;;;;;;4992953;28;20030;-70
2021/05/17 12:50:36;;;;;;;1.25;1.15;;;8.50;99.90;;;;;;4992966;28;20030;-70
2021/05/17 12:53:05;;;;;;;1.65;1.50;;;8.40;99.90;;;;;;4992822;28;20030;-70
2021/05/17 12:55:44;;;;;;;1.30;1.20;;;8.30;99.90;;;;;;4992678;28;20023;-70
2021/05/17 12:58:10;;;;;;;1.30;1.20;;;8.20;99.90;;;;;;4992669;28;20682;-70
2021/05/17 13:00:44;;;;;;;1.55;1.45;;;8.20;99.90;;;;;;4992798;28;20053;-70
2021/05/17 13:03:25;;;;;;;1.40;1.30;;;8.20;99.90;;;;;;4992417;28;20080;-70
2021/05/17 13:06:10;;;;;;;1.50;1.40;;;8.20;99.90;;;;;;4992598;28;20030;-70
2021/05/17 13:08:36;;;;;;;4.63;1.50;;;8.30;99.90;;;;;;4992607;28;20018;-70
2021/05/17 13:11:07;;;;;;;3.55;1.77;;;8.30;99.90;;;;;;4992528;28;20038;-70
2021/05/17 13:13:53;;;;;;;2.70;1.60;;;8.40;99.90;;;;;;4992509;28;20027;-71
2021/05/17 13:16:28;;;;;;;1.50;1.40;;;8.40;99.90;;;;;;4992241;28;20066;-70
2021/05/17 13:19:11;;;;;;;2.50;1.83;;;8.30;99.90;;;;;;4992471;28;20056;-70
2021/05/17 13:32:49;;;;;;;2.92;1.55;;;8.50;99.90;;;;;;4983220;28;20053;-69
2021/05/17 13:35:16;;;;;;;2.00;1.58;;;8.50;99.90;;;;;;4996015;28;20026;-70
2021/05/17 13:37:42;;;;;;;1.67;1.38;;;8.50;99.90;;;;;;4995994;28;20050;-70
2021/05/17 13:40:12;;;;;;;1.58;1.48;;;8.50;99.90;;;;;;4996073;28;20359;-70
2021/05/17 13:42:39;;;;;;;2.20;1.48;;;8.40;99.90;;;;;;4996380;28;20033;-70
2021/05/17 13:45:06;;;;;;;1.90;1.70;;;8.50;99.90;;;;;;4995809;28;20034;-70